createdAt,value
2023-04-15T00:00:53.740Z,9.50
2023-04-15T00:04:06.045Z,9.48
2023-04-15T00:07:20.485Z,9.47
2023-04-15T00:10:48.489Z,9.45
2023-04-15T00:13:59.614Z,9.44
2023-04-15T00:17:10.506Z,9.42
2023-04-15T00:20:28.358Z,9.40
2023-04-15T00:23:47.753Z,9.38
2023-04-15T00:27:00.017Z,9.34
2023-04-15T00:30:12.560Z,9.30
2023-04-15T00:33:23.328Z,9.27
2023-04-15T00:36:35.918Z,9.24
2023-04-15T00:39:54.767Z,9.19
2023-04-15T00:43:05.815Z,9.15
2023-04-15T00:46:17.719Z,9.09
2023-04-15T00:49:29.664Z,9.03
2023-04-15T00:52:48.878Z,8.98
2023-04-15T00:56:04.479Z,8.92
2023-04-15T00:59:32.078Z,8.87
2023-04-15T01:02:45.079Z,8.86
2023-04-15T01:05:56.669Z,8.87
2023-04-15T01:09:09.953Z,8.89
2023-04-15T01:12:22.679Z,8.92
2023-04-15T01:15:33.532Z,8.93
2023-04-15T01:18:44.425Z,8.94
2023-04-15T01:21:55.407Z,8.93
2023-04-15T01:25:08.996Z,8.93
2023-04-15T01:28:22.998Z,8.90
2023-04-15T01:31:35.898Z,8.88
2023-04-15T01:34:49.690Z,8.81
2023-04-15T01:38:01.904Z,8.72
2023-04-15T01:41:14.800Z,8.62
2023-04-15T01:44:28.449Z,8.54
2023-04-15T01:47:39.361Z,8.47
2023-04-15T01:50:50.878Z,8.41
2023-04-15T01:54:11.447Z,8.37
2023-04-15T01:57:17.367Z,8.32
2023-04-15T02:00:38.294Z,8.27
2023-04-15T02:03:50.657Z,8.22
2023-04-15T02:07:05.656Z,8.15
2023-04-15T02:10:16.569Z,8.07
2023-04-15T02:13:36.067Z,7.98
2023-04-15T02:16:55.675Z,7.93
2023-04-15T02:20:07.235Z,7.83
2023-04-15T02:23:29.833Z,7.72
2023-04-15T02:26:49.183Z,7.61
2023-04-15T02:30:01.080Z,7.52
2023-04-15T02:33:20.318Z,7.46
2023-04-15T02:36:31.284Z,7.41
2023-04-15T02:39:47.210Z,7.37
2023-04-15T02:43:00.106Z,7.33
2023-04-15T02:46:12.966Z,7.26
2023-04-15T02:49:25.186Z,7.18
2023-04-15T02:52:46.503Z,7.12
2023-04-15T02:55:57.314Z,7.06
2023-04-15T02:59:10.843Z,7.02
2023-04-15T03:02:22.772Z,6.94
2023-04-15T03:05:36.758Z,6.90
2023-04-15T03:08:49.886Z,6.84
2023-04-15T03:12:01.590Z,6.77
2023-04-15T03:15:13.461Z,6.70
2023-04-15T03:18:24.735Z,6.65
2023-04-15T03:21:37.529Z,6.59
2023-04-15T03:24:50.352Z,6.52
2023-04-15T03:28:05.699Z,6.46
2023-04-15T03:31:16.984Z,6.41
2023-04-15T03:34:36.224Z,6.39
2023-04-15T03:37:56.553Z,6.37
2023-04-15T03:41:07.420Z,6.34
2023-04-15T03:44:18.233Z,6.32
2023-04-15T03:47:31.118Z,6.28
2023-04-15T03:50:44.814Z,6.26
2023-04-15T03:54:05.064Z,6.24
2023-04-15T03:57:17.552Z,6.22
2023-04-15T04:00:32.863Z,6.19
2023-04-15T04:03:44.481Z,6.16
2023-04-15T04:07:12.724Z,6.13
2023-04-15T04:10:25.522Z,6.12
2023-04-15T04:13:43.219Z,6.12
2023-04-15T04:16:56.037Z,6.12
2023-04-15T04:20:15.230Z,6.12
2023-04-15T04:23:35.531Z,6.11
2023-04-15T04:27:03.150Z,6.14
2023-04-15T04:30:15.953Z,6.20
2023-04-15T04:33:29.370Z,6.22
2023-04-15T04:36:40.233Z,6.24
2023-04-15T04:39:52.128Z,6.28
2023-04-15T04:43:05.811Z,6.30
2023-04-15T04:46:17.526Z,6.33
2023-04-15T04:49:29.110Z,6.38
2023-04-15T04:52:42.146Z,6.47
2023-04-15T04:56:01.441Z,6.58
2023-04-15T04:59:06.012Z,6.70
2023-04-15T05:02:10.774Z,6.85
2023-04-15T05:05:27.768Z,7.01
2023-04-15T05:08:40.374Z,7.16
2023-04-15T05:11:52.107Z,7.31
2023-04-15T05:15:05.907Z,7.45
2023-04-15T05:18:19.133Z,7.58
2023-04-15T05:21:31.796Z,7.71
2023-04-15T05:24:42.598Z,7.84
2023-04-15T05:27:56.080Z,7.96
2023-04-15T05:31:17.009Z,8.15
2023-04-15T05:34:29.568Z,8.40
2023-04-15T05:37:44.308Z,8.74
2023-04-15T05:40:55.301Z,9.19
2023-04-15T05:44:07.303Z,9.64
2023-04-15T05:47:26.728Z,9.94
2023-04-15T05:50:38.407Z,10.27
2023-04-15T05:53:49.357Z,10.81
2023-04-15T05:56:48.713Z,11.42
2023-04-15T06:00:07.491Z,11.99
2023-04-15T06:03:26.975Z,12.60
2023-04-15T06:06:26.805Z,12.95
2023-04-15T06:09:40.387Z,13.21
2023-04-15T06:12:47.296Z,13.56
2023-04-15T06:16:06.824Z,13.84
2023-04-15T06:19:08.032Z,14.04
2023-04-15T06:22:12.724Z,14.12
2023-04-15T06:25:23.685Z,14.21
2023-04-15T06:28:35.173Z,14.19
2023-04-15T06:31:48.930Z,14.15
2023-04-15T06:35:09.035Z,14.07
2023-04-15T06:38:21.905Z,14.11
2023-04-15T06:41:42.185Z,14.21
2023-04-15T06:44:54.992Z,14.18
2023-04-15T06:48:09.179Z,14.30
2023-04-15T06:51:22.104Z,14.49
2023-04-15T06:54:26.128Z,14.69
2023-04-15T06:57:40.050Z,14.69
2023-04-15T07:01:00.652Z,14.73
2023-04-15T07:04:11.926Z,14.74
2023-04-15T07:07:18.393Z,14.74
2023-04-15T07:10:23.932Z,14.69
2023-04-15T07:13:44.553Z,14.60
2023-04-15T07:16:45.441Z,14.45
2023-04-15T07:20:02.654Z,14.40
2023-04-15T07:23:15.073Z,14.31
2023-04-15T07:26:27.933Z,14.17
2023-04-15T07:29:40.282Z,14.12
2023-04-15T07:32:51.715Z,14.10
2023-04-15T07:36:03.989Z,14.12
2023-04-15T07:39:25.646Z,14.21
2023-04-15T07:42:46.325Z,14.33
2023-04-15T07:46:05.940Z,14.53
2023-04-15T07:49:08.558Z,14.66
2023-04-15T07:52:18.802Z,14.70
2023-04-15T07:55:34.120Z,14.73
2023-04-15T07:58:45.212Z,14.79
2023-04-15T08:02:07.320Z,14.73
2023-04-15T08:05:18.269Z,14.79
2023-04-15T08:08:29.731Z,14.81
2023-04-15T08:11:40.623Z,14.76
2023-04-15T08:15:08.395Z,14.84
2023-04-15T08:18:19.737Z,14.99
2023-04-15T08:21:33.259Z,15.16
2023-04-15T08:24:45.946Z,15.27
2023-04-15T08:28:04.264Z,15.41
2023-04-15T08:31:16.910Z,15.57
2023-04-15T08:34:31.466Z,15.58
2023-04-15T08:37:42.679Z,15.48
2023-04-15T08:40:54.708Z,15.42
2023-04-15T08:43:54.745Z,15.46
2023-04-15T08:47:06.320Z,15.54
2023-04-15T08:50:26.213Z,15.47
2023-04-15T08:53:46.521Z,15.32
2023-04-15T08:57:06.035Z,15.24
2023-04-15T09:00:13.269Z,15.13
2023-04-15T09:03:24.009Z,15.06
2023-04-15T09:06:36.337Z,15.00
2023-04-15T09:09:47.605Z,15.01
2023-04-15T09:12:59.121Z,15.03
2023-04-15T09:16:19.304Z,15.01
2023-04-15T09:19:32.200Z,15.05
2023-04-15T09:22:44.599Z,15.07
2023-04-15T09:25:44.230Z,15.13
2023-04-15T09:28:58.298Z,15.13
2023-04-15T09:32:29.202Z,15.19
2023-04-15T09:35:42.062Z,15.28
2023-04-15T09:38:46.821Z,15.34
2023-04-15T09:42:06.950Z,15.39
2023-04-15T09:45:19.187Z,15.57
2023-04-15T09:48:48.606Z,15.75
2023-04-15T09:52:04.114Z,15.85
2023-04-15T09:55:29.266Z,15.80
2023-04-15T09:58:32.792Z,15.77
2023-04-15T10:01:44.676Z,15.90
2023-04-15T10:04:56.121Z,15.98
2023-04-15T10:07:59.487Z,15.97
2023-04-15T10:11:19.126Z,16.04
2023-04-15T10:14:32.948Z,16.12
2023-04-15T10:17:48.929Z,16.09
2023-04-15T10:21:01.100Z,15.94
2023-04-15T10:24:28.774Z,15.78
2023-04-15T10:27:41.755Z,15.70
2023-04-15T10:30:57.559Z,15.60
2023-04-15T10:34:09.238Z,15.43
2023-04-15T10:37:29.610Z,15.40
2023-04-15T10:40:39.526Z,15.43
2023-04-15T10:43:51.080Z,15.49
2023-04-15T10:46:55.936Z,15.53
2023-04-15T10:50:03.813Z,15.54
2023-04-15T10:53:16.003Z,15.47
2023-04-15T10:56:36.879Z,15.38
2023-04-15T10:59:56.144Z,15.30
2023-04-15T11:03:02.925Z,15.28
2023-04-15T11:06:33.684Z,15.28
2023-04-15T11:09:46.679Z,15.25
2023-04-15T11:13:06.808Z,15.29
2023-04-15T11:16:05.731Z,15.21
2023-04-15T11:19:19.556Z,15.17
2023-04-15T11:22:31.045Z,15.24
2023-04-15T11:25:44.217Z,15.25
2023-04-15T11:29:04.261Z,15.25
2023-04-15T11:32:16.185Z,15.19
2023-04-15T11:35:36.307Z,15.15
2023-04-15T11:38:47.139Z,15.16
2023-04-15T11:42:00.030Z,15.20
2023-04-15T11:45:12.975Z,15.21
2023-04-15T11:48:39.197Z,15.17
2023-04-15T11:52:06.915Z,15.12
2023-04-15T11:55:18.981Z,15.09
2023-04-15T11:58:32.120Z,15.06
2023-04-15T12:01:44.810Z,15.02
2023-04-15T12:04:56.008Z,15.00
2023-04-15T12:08:12.479Z,15.05
2023-04-15T12:11:23.333Z,15.08
2023-04-15T12:14:29.142Z,15.08
2023-04-15T12:17:51.838Z,15.10
2023-04-15T12:21:11.041Z,15.06
2023-04-15T12:24:23.920Z,15.00
2023-04-15T12:27:37.280Z,14.91
2023-04-15T12:30:48.461Z,14.87
2023-04-15T12:34:00.755Z,14.83
2023-04-15T12:37:14.512Z,14.83
2023-04-15T12:40:26.467Z,14.81
2023-04-15T12:43:46.345Z,14.74
2023-04-15T12:46:57.376Z,14.67
2023-04-15T12:50:08.818Z,14.64
2023-04-15T12:53:12.742Z,14.62
2023-04-15T12:56:34.031Z,14.55
2023-04-15T12:59:46.775Z,14.51
2023-04-15T13:02:57.744Z,14.50
2023-04-15T13:06:09.614Z,14.53
2023-04-15T13:09:20.857Z,14.55
2023-04-15T13:12:40.704Z,14.54
2023-04-15T13:16:05.603Z,14.51
2023-04-15T13:19:09.098Z,14.48
2023-04-15T13:22:13.995Z,14.44
2023-04-15T13:25:25.481Z,14.38
2023-04-15T13:28:36.318Z,14.31
2023-04-15T13:31:57.043Z,14.28
2023-04-15T13:35:10.321Z,14.24
2023-04-15T13:38:21.771Z,14.18
2023-04-15T13:41:35.697Z,14.10
2023-04-15T13:44:55.968Z,14.01
2023-04-15T13:48:07.489Z,13.97
2023-04-15T13:51:18.400Z,14.02
2023-04-15T13:54:38.193Z,14.16
2023-04-15T13:57:52.737Z,14.32
2023-04-15T14:01:06.279Z,14.52
2023-04-15T14:04:21.549Z,14.74
2023-04-15T14:07:36.764Z,14.91
2023-04-15T14:10:47.673Z,15.13
2023-04-15T14:13:58.473Z,15.36
2023-04-15T14:17:11.387Z,15.48
2023-04-15T14:20:25.740Z,15.39
2023-04-15T14:23:37.574Z,15.20
2023-04-15T14:26:51.664Z,15.04
2023-04-15T14:30:02.586Z,14.97
2023-04-15T14:33:08.613Z,14.92
2023-04-15T14:36:19.538Z,14.89
2023-04-15T14:39:30.370Z,14.84
2023-04-15T14:42:45.263Z,14.73
2023-04-15T14:45:57.370Z,14.59
2023-04-15T14:49:10.348Z,14.47
2023-04-15T14:52:21.234Z,14.32
2023-04-15T14:55:33.426Z,14.20
2023-04-15T14:58:45.988Z,14.17
2023-04-15T15:01:58.465Z,14.15
2023-04-15T15:05:12.981Z,14.11
2023-04-15T15:08:27.905Z,14.04
2023-04-15T15:11:47.140Z,13.99
2023-04-15T15:15:01.648Z,13.93
2023-04-15T15:18:16.702Z,13.89
2023-04-15T15:21:27.618Z,13.89
2023-04-15T15:24:39.810Z,13.92
2023-04-15T15:28:01.182Z,13.95
2023-04-15T15:31:21.544Z,14.02
2023-04-15T15:34:41.487Z,14.14
2023-04-15T15:37:56.066Z,14.30
2023-04-15T15:41:12.087Z,14.39
2023-04-15T15:44:10.657Z,14.39
2023-04-15T15:47:21.647Z,14.36
2023-04-15T15:50:32.529Z,14.27
2023-04-15T15:53:45.882Z,14.08
2023-04-15T15:56:58.381Z,13.80
2023-04-15T16:00:12.376Z,13.49
2023-04-15T16:03:24.987Z,13.20
2023-04-15T16:06:38.025Z,12.92
2023-04-15T16:09:50.074Z,12.71
2023-04-15T16:13:02.888Z,12.51
2023-04-15T16:16:17.949Z,12.35
2023-04-15T16:19:57.681Z,12.20
2023-04-15T16:23:15.432Z,12.02
2023-04-15T16:26:29.413Z,11.83
2023-04-15T16:29:42.838Z,11.64
2023-04-15T16:33:10.632Z,11.50
2023-04-15T16:36:22.645Z,11.35
2023-04-15T16:39:33.660Z,11.23
2023-04-15T16:42:44.588Z,11.10
2023-04-15T16:45:56.887Z,10.96
2023-04-15T16:49:08.752Z,10.83
2023-04-15T16:52:17.904Z,10.69
2023-04-15T16:55:29.741Z,10.57
2023-04-15T16:58:40.628Z,10.44
2023-04-15T17:01:43.607Z,10.29
2023-04-15T17:04:56.631Z,10.12
2023-04-15T17:08:10.779Z,9.94
2023-04-15T17:11:21.666Z,9.83
2023-04-15T17:14:32.628Z,9.72
2023-04-15T17:17:47.488Z,9.60
2023-04-15T17:20:58.350Z,9.47
2023-04-15T17:24:09.256Z,9.32
2023-04-15T17:27:21.772Z,9.19
2023-04-15T17:30:41.112Z,9.07
2023-04-15T17:34:00.468Z,8.95
2023-04-15T17:37:23.265Z,8.81
2023-04-15T17:40:34.248Z,8.69
2023-04-15T17:43:45.401Z,8.58
2023-04-15T17:47:04.784Z,8.45
2023-04-15T17:50:09.302Z,8.32
2023-04-15T17:53:28.604Z,8.18
2023-04-15T17:56:40.326Z,8.05
2023-04-15T17:59:53.735Z,7.94
2023-04-15T18:03:04.637Z,7.85
2023-04-15T18:06:15.571Z,7.74
2023-04-15T18:09:26.908Z,7.65
2023-04-15T18:12:39.374Z,7.56
2023-04-15T18:15:51.186Z,7.46
2023-04-15T18:19:04.016Z,7.36
2023-04-15T18:22:28.070Z,7.25
2023-04-15T18:25:39.010Z,7.16
2023-04-15T18:28:54.958Z,7.06
2023-04-15T18:32:06.824Z,6.94
2023-04-15T18:35:19.724Z,6.85
2023-04-15T18:38:32.487Z,6.74
2023-04-15T18:41:43.313Z,6.63
2023-04-15T18:45:03.773Z,6.56
2023-04-15T18:48:24.262Z,6.45
2023-04-15T18:51:47.578Z,6.34
2023-04-15T18:54:58.405Z,6.27
2023-04-15T18:58:11.253Z,6.21
2023-04-15T19:01:26.835Z,6.12
2023-04-15T19:04:29.942Z,6.07
2023-04-15T19:07:44.022Z,6.02
2023-04-15T19:11:06.157Z,5.97
2023-04-15T19:14:19.084Z,5.87
2023-04-15T19:17:23.632Z,5.79
2023-04-15T19:20:37.839Z,5.71
2023-04-15T19:23:50.809Z,5.63
2023-04-15T19:27:10.017Z,5.56
2023-04-15T19:30:27.896Z,5.50
2023-04-15T19:33:44.163Z,5.43
2023-04-15T19:37:03.506Z,5.36
2023-04-15T19:40:14.563Z,5.27
2023-04-15T19:43:26.643Z,5.21
2023-04-15T19:46:49.980Z,5.17
2023-04-15T19:50:02.460Z,5.13
2023-04-15T19:53:21.891Z,5.11
2023-04-15T19:56:49.582Z,5.09
2023-04-15T19:59:55.046Z,5.03
2023-04-15T20:03:07.160Z,4.97
2023-04-15T20:06:18.221Z,4.94
2023-04-15T20:09:30.135Z,4.91
2023-04-15T20:12:52.031Z,4.84
2023-04-15T20:16:06.545Z,4.80
2023-04-15T20:19:20.747Z,4.79
2023-04-15T20:22:33.124Z,4.77
2023-04-15T20:25:46.586Z,4.75
2023-04-15T20:28:57.452Z,4.71
2023-04-15T20:32:09.892Z,4.67
2023-04-15T20:35:21.496Z,4.65
2023-04-15T20:38:39.231Z,4.61
2023-04-15T20:41:52.937Z,4.57
2023-04-15T20:45:04.376Z,4.51
2023-04-15T20:48:32.219Z,4.46
2023-04-15T20:51:45.064Z,4.40
2023-04-15T20:54:59.895Z,4.34
2023-04-15T20:58:27.547Z,4.30
2023-04-15T21:01:40.934Z,4.28
2023-04-15T21:04:55.162Z,4.23
2023-04-15T21:07:58.119Z,4.17
2023-04-15T21:11:43.153Z,4.13
2023-04-15T21:14:58.412Z,4.09
2023-04-15T21:18:10.181Z,4.05
2023-04-15T21:21:26.166Z,4.00
2023-04-15T21:24:39.174Z,3.98
2023-04-15T21:27:51.316Z,3.97
2023-04-15T21:31:02.877Z,3.93
2023-04-15T21:34:13.669Z,3.89
2023-04-15T21:37:25.843Z,3.84
2023-04-15T21:40:39.792Z,3.79
2023-04-15T21:44:00.127Z,3.75
2023-04-15T21:47:14.470Z,3.72
2023-04-15T21:50:28.733Z,3.69
2023-04-15T21:53:40.733Z,3.66
2023-04-15T21:57:00.234Z,3.63
2023-04-15T22:00:13.225Z,3.56
2023-04-15T22:03:26.625Z,3.50
2023-04-15T22:06:39.116Z,3.44
2023-04-15T22:09:51.917Z,3.40
2023-04-15T22:13:02.450Z,3.37
2023-04-15T22:16:15.229Z,3.34
2023-04-15T22:19:30.292Z,3.31
2023-04-15T22:22:44.056Z,3.28
2023-04-15T22:25:55.977Z,3.24
2023-04-15T22:29:09.001Z,3.21
2023-04-15T22:32:22.049Z,3.18
2023-04-15T22:35:33.906Z,3.14
2023-04-15T22:38:45.802Z,3.09
2023-04-15T22:42:05.081Z,3.04
2023-04-15T22:45:17.638Z,2.98
2023-04-15T22:48:28.480Z,2.92
2023-04-15T22:51:43.505Z,2.89
2023-04-15T22:54:54.417Z,2.85
2023-04-15T22:58:05.315Z,2.82
2023-04-15T23:01:17.437Z,2.79
2023-04-15T23:04:38.504Z,2.73
2023-04-15T23:07:57.868Z,2.70
2023-04-15T23:11:09.504Z,2.66
2023-04-15T23:14:31.643Z,2.67
2023-04-15T23:17:42.544Z,2.73
2023-04-15T23:20:54.168Z,2.81
2023-04-15T23:24:06.088Z,2.82
2023-04-15T23:27:18.580Z,2.78
2023-04-15T23:30:29.495Z,2.75
2023-04-15T23:33:41.083Z,2.72
2023-04-15T23:36:45.654Z,2.68
2023-04-15T23:39:56.691Z,2.65
2023-04-15T23:43:08.814Z,2.63
2023-04-15T23:46:21.710Z,2.62
2023-04-15T23:49:32.982Z,2.62
2023-04-15T23:52:45.956Z,2.62
2023-04-15T23:55:59.109Z,2.63
2023-04-15T23:59:19.388Z,2.61
